sensor_id;sensor_type;location;lat;lon;timestamp;pressure;altitude;pressure_sealevel;temperature;humidity
73981;BME280;62348;51.412;5.436;2024-03-17T00:00:20;102175.88;;;5.23;100.00
73981;BME280;62348;51.412;5.436;2024-03-17T00:02:46;102167.84;;;5.23;100.00
73981;BME280;62348;51.412;5.436;2024-03-17T00:05:12;102164.16;;;5.24;100.00
73981;BME280;62348;51.412;5.436;2024-03-17T00:07:38;102163.28;;;5.23;100.00
73981;BME280;62348;51.412;5.436;2024-03-17T00:10:04;102165.97;;;5.23;100.00
73981;BME280;62348;51.412;5.436;2024-03-17T00:12:30;102165.97;;;5.23;100.00
73981;BME280;62348;51.412;5.436;2024-03-17T00:14:55;102151.38;;;5.26;100.00
73981;BME280;62348;51.412;5.436;2024-03-17T00:17:20;102150.53;;;5.25;100.00
73981;BME280;62348;51.412;5.436;2024-03-17T00:19:46;102145.19;;;5.25;100.00
73981;BME280;62348;51.412;5.436;2024-03-17T00:22:12;102155.69;;;5.27;100.00
73981;BME280;62348;51.412;5.436;2024-03-17T00:24:40;102151.38;;;5.26;100.00
73981;BME280;62348;51.412;5.436;2024-03-17T00:27:06;102149.50;;;5.26;100.00
73981;BME280;62348;51.412;5.436;2024-03-17T00:29:31;102150.13;;;5.28;100.00
73981;BME280;62348;51.412;5.436;2024-03-17T00:31:57;102148.28;;;5.29;100.00
73981;BME280;62348;51.412;5.436;2024-03-17T00:34:23;102134.88;;;5.29;100.00
73981;BME280;62348;51.412;5.436;2024-03-17T00:36:48;102149.97;;;5.30;100.00
73981;BME280;62348;51.412;5.436;2024-03-17T00:39:14;102140.03;;;5.31;100.00
73981;BME280;62348;51.412;5.436;2024-03-17T00:41:43;102149.97;;;5.30;100.00
73981;BME280;62348;51.412;5.436;2024-03-17T00:44:09;102154.28;;;5.31;100.00
73981;BME280;62348;51.412;5.436;2024-03-17T00:46:34;102146.22;;;5.31;100.00
73981;BME280;62348;51.412;5.436;2024-03-17T00:49:00;102153.09;;;5.34;100.00
73981;BME280;62348;51.412;5.436;2024-03-17T00:51:26;102141.53;;;5.33;100.00
73981;BME280;62348;51.412;5.436;2024-03-17T00:53:51;102139.84;;;5.32;100.00
73981;BME280;62348;51.412;5.436;2024-03-17T00:56:17;102140.69;;;5.33;100.00
73981;BME280;62348;51.412;5.436;2024-03-17T00:58:42;102139.66;;;5.34;100.00
73981;BME280;62348;51.412;5.436;2024-03-17T01:01:09;102141.53;;;5.33;100.00
73981;BME280;62348;51.412;5.436;2024-03-17T01:03:35;102132.63;;;5.33;100.00
73981;BME280;62348;51.412;5.436;2024-03-17T01:06:05;102131.00;;;5.32;100.00
73981;BME280;62348;51.412;5.436;2024-03-17T01:08:31;102137.00;;;5.34;100.00
73981;BME280;62348;51.412;5.436;2024-03-17T01:10:57;102134.50;;;5.32;100.00
73981;BME280;62348;51.412;5.436;2024-03-17T01:13:24;102131.81;;;5.32;100.00
73981;BME280;62348;51.412;5.436;2024-03-17T01:15:53;102124.78;;;5.31;100.00
73981;BME280;62348;51.412;5.436;2024-03-17T01:18:18;102124.78;;;5.31;100.00
73981;BME280;62348;51.412;5.436;2024-03-17T01:20:44;102119.81;;;5.28;100.00
73981;BME280;62348;51.412;5.436;2024-03-17T01:23:09;102115.28;;;5.28;100.00
73981;BME280;62348;51.412;5.436;2024-03-17T01:25:35;102105.97;;;5.24;100.00
73981;BME280;62348;51.412;5.436;2024-03-17T01:28:03;102105.16;;;5.24;100.00
73981;BME280;62348;51.412;5.436;2024-03-17T01:30:28;102110.06;;;5.20;100.00
73981;BME280;62348;51.412;5.436;2024-03-17T01:32:53;102098.53;;;5.20;100.00
73981;BME280;62348;51.412;5.436;2024-03-17T01:35:19;102100.53;;;5.18;100.00
73981;BME280;62348;51.412;5.436;2024-03-17T01:37:45;102090.84;;;5.17;100.00
73981;BME280;62348;51.412;5.436;2024-03-17T01:40:11;102094.53;;;5.16;100.00
73981;BME280;62348;51.412;5.436;2024-03-17T01:42:37;102090.22;;;5.15;100.00
73981;BME280;62348;51.412;5.436;2024-03-17T01:45:30;102086.72;;;5.14;100.00
73981;BME280;62348;51.412;5.436;2024-03-17T01:47:57;102094.09;;;5.12;100.00
73981;BME280;62348;51.412;5.436;2024-03-17T01:50:35;102090.59;;;5.12;100.00
73981;BME280;62348;51.412;5.436;2024-03-17T01:53:03;102089.78;;;5.11;100.00
73981;BME280;62348;51.412;5.436;2024-03-17T01:55:31;102098.63;;;5.12;100.00
73981;BME280;62348;51.412;5.436;2024-03-17T01:57:57;102091.41;;;5.12;100.00
73981;BME280;62348;51.412;5.436;2024-03-17T02:00:23;102094.09;;;5.12;100.00
73981;BME280;62348;51.412;5.436;2024-03-17T02:02:48;102086.91;;;5.13;100.00
73981;BME280;62348;51.412;5.436;2024-03-17T02:05:14;102077.00;;;5.13;100.00
73981;BME280;62348;51.412;5.436;2024-03-17T02:07:39;102083.19;;;5.14;100.00
73981;BME280;62348;51.412;5.436;2024-03-17T02:10:06;102072.28;;;5.15;100.00
73981;BME280;62348;51.412;5.436;2024-03-17T02:12:34;102074.75;;;5.17;100.00
73981;BME280;62348;51.412;5.436;2024-03-17T02:15:00;102082.44;;;5.20;100.00
73981;BME280;62348;51.412;5.436;2024-03-17T02:17:26;102076.84;;;5.21;100.00
73981;BME280;62348;51.412;5.436;2024-03-17T02:19:53;102075.66;;;5.24;100.00
73981;BME280;62348;51.412;5.436;2024-03-17T02:22:19;102070.09;;;5.25;100.00
73981;BME280;62348;51.412;5.436;2024-03-17T02:24:45;102082.28;;;5.28;100.00
73981;BME280;62348;51.412;5.436;2024-03-17T02:27:10;102078.56;;;5.29;100.00
73981;BME280;62348;51.412;5.436;2024-03-17T02:29:36;102063.94;;;5.32;100.00
73981;BME280;62348;51.412;5.436;2024-03-17T02:32:11;102066.22;;;5.35;100.00
73981;BME280;62348;51.412;5.436;2024-03-17T02:34:37;102063.16;;;5.38;100.00
73981;BME280;62348;51.412;5.436;2024-03-17T02:37:04;102057.41;;;5.41;100.00
73981;BME280;62348;51.412;5.436;2024-03-17T02:39:31;102052.88;;;5.41;100.00
73981;BME280;62348;51.412;5.436;2024-03-17T02:42:07;102048.94;;;5.44;100.00
73981;BME280;62348;51.412;5.436;2024-03-17T02:44:34;102046.69;;;5.47;100.00
73981;BME280;62348;51.412;5.436;2024-03-17T02:47:01;102054.56;;;5.49;100.00
73981;BME280;62348;51.412;5.436;2024-03-17T02:49:28;102044.47;;;5.51;100.00
73981;BME280;62348;51.412;5.436;2024-03-17T02:52:01;102048.59;;;5.54;100.00
73981;BME280;62348;51.412;5.436;2024-03-17T02:54:26;102048.41;;;5.55;100.00
73981;BME280;62348;51.412;5.436;2024-03-17T02:56:51;102049.03;;;5.57;100.00
73981;BME280;62348;51.412;5.436;2024-03-17T02:59:17;102050.69;;;5.58;100.00
73981;BME280;62348;51.412;5.436;2024-03-17T03:01:43;102054.81;;;5.61;100.00
73981;BME280;62348;51.412;5.436;2024-03-17T03:04:10;102053.81;;;5.62;100.00
73981;BME280;62348;51.412;5.436;2024-03-17T03:06:35;102049.06;;;5.64;100.00
73981;BME280;62348;51.412;5.436;2024-03-17T03:09:00;102056.72;;;5.67;100.00
73981;BME280;62348;51.412;5.436;2024-03-17T03:11:26;102056.53;;;5.68;100.00
73981;BME280;62348;51.412;5.436;2024-03-17T03:13:51;102050.97;;;5.70;100.00
73981;BME280;62348;51.412;5.436;2024-03-17T03:16:17;102054.47;;;5.71;100.00
73981;BME280;62348;51.412;5.436;2024-03-17T03:18:44;102056.75;;;5.74;100.00
73981;BME280;62348;51.412;5.436;2024-03-17T03:21:10;102050.34;;;5.75;100.00
73981;BME280;62348;51.412;5.436;2024-03-17T03:23:36;102058.84;;;5.78;100.00
73981;BME280;62348;51.412;5.436;2024-03-17T03:26:03;102051.63;;;5.79;100.00
73981;BME280;62348;51.412;5.436;2024-03-17T03:28:31;102043.34;;;5.80;100.00
73981;BME280;62348;51.412;5.436;2024-03-17T03:30:56;102039.66;;;5.81;100.00
73981;BME280;62348;51.412;5.436;2024-03-17T03:33:24;102045.03;;;5.81;100.00
73981;BME280;62348;51.412;5.436;2024-03-17T03:35:49;102036.78;;;5.83;100.00
73981;BME280;62348;51.412;5.436;2024-03-17T03:38:16;102033.91;;;5.84;100.00
73981;BME280;62348;51.412;5.436;2024-03-17T03:40:42;102023.97;;;5.85;100.00
73981;BME280;62348;51.412;5.436;2024-03-17T03:43:08;102031.84;;;5.86;100.00
73981;BME280;62348;51.412;5.436;2024-03-17T03:45:34;102033.47;;;5.87;100.00
73981;BME280;62348;51.412;5.436;2024-03-17T03:48:00;102027.09;;;5.89;100.00
73981;BME280;62348;51.412;5.436;2024-03-17T03:50:26;102031.44;;;5.90;100.00
73981;BME280;62348;51.412;5.436;2024-03-17T03:52:51;102026.91;;;5.90;100.00
73981;BME280;62348;51.412;5.436;2024-03-17T03:55:18;102010.19;;;5.88;100.00
73981;BME280;62348;51.412;5.436;2024-03-17T03:57:44;102001.06;;;5.89;100.00
73981;BME280;62348;51.412;5.436;2024-03-17T04:00:14;102001.91;;;5.90;100.00
73981;BME280;62348;51.412;5.436;2024-03-17T04:02:41;102009.13;;;5.89;100.00
73981;BME280;62348;51.412;5.436;2024-03-17T04:05:08;102001.28;;;5.87;100.00
73981;BME280;62348;51.412;5.436;2024-03-17T04:07:34;101995.91;;;5.87;100.00
73981;BME280;62348;51.412;5.436;2024-03-17T04:10:01;101991.78;;;5.85;100.00
73981;BME280;62348;51.412;5.436;2024-03-17T04:12:27;101994.66;;;5.83;100.00
73981;BME280;62348;51.412;5.436;2024-03-17T04:14:53;101995.47;;;5.84;100.00
73981;BME280;62348;51.412;5.436;2024-03-17T04:17:22;101990.09;;;5.84;100.00
73981;BME280;62348;51.412;5.436;2024-03-17T04:19:48;101987.66;;;5.82;100.00
73981;BME280;62348;51.412;5.436;2024-03-17T04:22:17;101979.78;;;5.81;100.00
73981;BME280;62348;51.412;5.436;2024-03-17T04:24:44;101981.63;;;5.80;100.00
73981;BME280;62348;51.412;5.436;2024-03-17T04:27:09;101979.16;;;5.79;100.00
73981;BME280;62348;51.412;5.436;2024-03-17T04:29:35;101976.69;;;5.77;100.00
73981;BME280;62348;51.412;5.436;2024-03-17T04:32:00;101970.50;;;5.77;100.00
73981;BME280;62348;51.412;5.436;2024-03-17T04:34:27;101973.38;;;5.75;100.00
73981;BME280;62348;51.412;5.436;2024-03-17T04:36:52;101974.19;;;5.76;100.00
73981;BME280;62348;51.412;5.436;2024-03-17T04:39:19;101971.69;;;5.74;100.00
73981;BME280;62348;51.412;5.436;2024-03-17T04:41:45;101969.22;;;5.73;100.00
73981;BME280;62348;51.412;5.436;2024-03-17T04:44:10;101972.13;;;5.71;100.00
73981;BME280;62348;51.412;5.436;2024-03-17T04:46:36;101967.97;;;5.68;100.00
73981;BME280;62348;51.412;5.436;2024-03-17T04:49:01;101970.03;;;5.66;100.00
73981;BME280;62348;51.412;5.436;2024-03-17T04:51:29;101970.44;;;5.63;100.00
73981;BME280;62348;51.412;5.436;2024-03-17T04:53:54;101973.13;;;5.63;100.00
73981;BME280;62348;51.412;5.436;2024-03-17T04:56:19;101967.94;;;5.62;100.00
73981;BME280;62348;51.412;5.436;2024-03-17T04:58:45;101970.81;;;5.60;100.00
73981;BME280;62348;51.412;5.436;2024-03-17T05:01:10;101966.69;;;5.58;100.00
73981;BME280;62348;51.412;5.436;2024-03-17T05:03:36;101976.78;;;5.56;100.00
73981;BME280;62348;51.412;5.436;2024-03-17T05:06:03;101975.97;;;5.55;100.00
73981;BME280;62348;51.412;5.436;2024-03-17T05:08:30;101977.19;;;5.53;100.00
73981;BME280;62348;51.412;5.436;2024-03-17T05:10:57;101974.91;;;5.50;100.00
73981;BME280;62348;51.412;5.436;2024-03-17T05:13:22;101961.69;;;5.48;100.00
73981;BME280;62348;51.412;5.436;2024-03-17T05:15:48;101966.41;;;5.46;100.00
73981;BME280;62348;51.412;5.436;2024-03-17T05:18:13;101963.97;;;5.44;100.00
73981;BME280;62348;51.412;5.436;2024-03-17T05:20:39;101962.47;;;5.42;100.00
73981;BME280;62348;51.412;5.436;2024-03-17T05:23:04;101955.47;;;5.41;100.00
73981;BME280;62348;51.412;5.436;2024-03-17T05:25:29;101953.81;;;5.40;100.00
73981;BME280;62348;51.412;5.436;2024-03-17T05:27:55;101952.38;;;5.37;100.00
73981;BME280;62348;51.412;5.436;2024-03-17T05:30:20;101958.13;;;5.34;100.00
73981;BME280;62348;51.412;5.436;2024-03-17T05:32:45;101951.09;;;5.33;100.00
73981;BME280;62348;51.412;5.436;2024-03-17T05:35:11;101958.50;;;5.31;100.00
73981;BME280;62348;51.412;5.436;2024-03-17T05:37:36;101956.03;;;5.30;100.00
73981;BME280;62348;51.412;5.436;2024-03-17T05:40:02;101949.00;;;5.28;100.00
73981;BME280;62348;51.412;5.436;2024-03-17T05:42:28;101956.63;;;5.25;100.00
73981;BME280;62348;51.412;5.436;2024-03-17T05:44:53;101946.09;;;5.23;100.00
73981;BME280;62348;51.412;5.436;2024-03-17T05:47:19;101953.31;;;5.23;100.00
73981;BME280;62348;51.412;5.436;2024-03-17T05:49:45;101941.97;;;5.21;100.00
73981;BME280;62348;51.412;5.436;2024-03-17T05:52:11;101935.78;;;5.20;100.00
73981;BME280;62348;51.412;5.436;2024-03-17T05:54:36;101951.03;;;5.20;100.00
73981;BME280;62348;51.412;5.436;2024-03-17T05:57:03;101949.38;;;5.19;100.00
73981;BME280;62348;51.412;5.436;2024-03-17T05:59:30;101952.06;;;5.19;100.00
73981;BME280;62348;51.412;5.436;2024-03-17T06:01:56;101961.97;;;5.18;100.00
73981;BME280;62348;51.412;5.436;2024-03-17T06:04:21;101954.09;;;5.17;100.00
73981;BME280;62348;51.412;5.436;2024-03-17T06:06:47;101957.81;;;5.16;100.00
73981;BME280;62348;51.412;5.436;2024-03-17T06:09:14;101961.34;;;5.16;100.00
73981;BME280;62348;51.412;5.436;2024-03-17T06:11:43;101967.69;;;5.15;100.00
73981;BME280;62348;51.412;5.436;2024-03-17T06:14:08;101972.06;;;5.16;100.00
73981;BME280;62348;51.412;5.436;2024-03-17T06:16:37;101970.19;;;5.17;100.00
73981;BME280;62348;51.412;5.436;2024-03-17T06:19:02;101972.88;;;5.17;100.00
73981;BME280;62348;51.412;5.436;2024-03-17T06:21:28;101965.66;;;5.17;100.00
73981;BME280;62348;51.412;5.436;2024-03-17T06:23:54;101974.31;;;5.19;100.00
73981;BME280;62348;51.412;5.436;2024-03-17T06:26:19;101969.81;;;5.20;100.00
73981;BME280;62348;51.412;5.436;2024-03-17T06:28:46;101976.81;;;5.21;100.00
73981;BME280;62348;51.412;5.436;2024-03-17T06:31:11;101973.94;;;5.22;100.00
73981;BME280;62348;51.412;5.436;2024-03-17T06:33:37;101972.50;;;5.26;100.00
73981;BME280;62348;51.412;5.436;2024-03-17T06:36:03;101972.13;;;5.30;100.00
73981;BME280;62348;51.412;5.436;2024-03-17T06:38:29;101975.25;;;5.33;100.00
73981;BME280;62348;51.412;5.436;2024-03-17T06:40:55;101974.44;;;5.39;100.00
73981;BME280;62348;51.412;5.436;2024-03-17T06:43:20;101969.31;;;5.44;100.00
73981;BME280;62348;51.412;5.436;2024-03-17T06:45:59;101972.25;;;5.56;100.00
73981;BME280;62348;51.412;5.436;2024-03-17T06:48:25;101969.63;;;5.70;100.00
73981;BME280;62348;51.412;5.436;2024-03-17T06:50:52;101976.69;;;5.84;100.00
73981;BME280;62348;51.412;5.436;2024-03-17T06:53:18;101986.22;;;5.93;100.00
73981;BME280;62348;51.412;5.436;2024-03-17T06:55:51;101987.09;;;6.00;100.00
73981;BME280;62348;51.412;5.436;2024-03-17T06:58:17;101974.34;;;6.09;100.00
73981;BME280;62348;51.412;5.436;2024-03-17T07:00:55;101982.19;;;6.17;100.00
73981;BME280;62348;51.412;5.436;2024-03-17T07:03:22;101978.25;;;6.20;100.00
73981;BME280;62348;51.412;5.436;2024-03-17T07:05:55;101964.44;;;6.23;100.00
73981;BME280;62348;51.412;5.436;2024-03-17T07:08:23;101954.72;;;6.29;100.00
73981;BME280;62348;51.412;5.436;2024-03-17T07:11:15;101960.09;;;6.49;100.00
73981;BME280;62348;51.412;5.436;2024-03-17T07:13:42;101953.50;;;6.58;100.00
73981;BME280;62348;51.412;5.436;2024-03-17T07:16:08;101945.44;;;6.64;100.00
73981;BME280;62348;51.412;5.436;2024-03-17T07:18:34;101942.31;;;6.68;100.00
73981;BME280;62348;51.412;5.436;2024-03-17T07:21:02;101947.50;;;6.69;100.00
73981;BME280;62348;51.412;5.436;2024-03-17T07:23:29;101946.28;;;6.72;100.00
73981;BME280;62348;51.412;5.436;2024-03-17T07:25:56;101951.66;;;6.72;100.00
73981;BME280;62348;51.412;5.436;2024-03-17T07:28:22;101951.63;;;6.78;100.00
73981;BME280;62348;51.412;5.436;2024-03-17T07:30:53;101954.75;;;6.89;100.00
73981;BME280;62348;51.412;5.436;2024-03-17T07:33:20;101948.09;;;7.04;100.00
73981;BME280;62348;51.412;5.436;2024-03-17T07:35:56;101940.75;;;7.32;100.00
73981;BME280;62348;51.412;5.436;2024-03-17T07:38:24;101948.31;;;7.61;100.00
73981;BME280;62348;51.412;5.436;2024-03-17T07:43:25;101942.97;;;7.93;100.00
73981;BME280;62348;51.412;5.436;2024-03-17T07:46:03;101946.28;;;7.95;100.00
73981;BME280;62348;51.412;5.436;2024-03-17T07:48:33;101950.00;;;7.94;100.00
73981;BME280;62348;51.412;5.436;2024-03-17T07:51:04;101949.41;;;7.92;100.00
73981;BME280;62348;51.412;5.436;2024-03-17T07:53:31;101948.59;;;7.85;100.00
73981;BME280;62348;51.412;5.436;2024-03-17T07:55:57;101944.91;;;7.79;100.00
73981;BME280;62348;51.412;5.436;2024-03-17T07:58:24;101944.53;;;7.76;100.00
73981;BME280;62348;51.412;5.436;2024-03-17T08:00:51;101938.75;;;7.72;100.00
73981;BME280;62348;51.412;5.436;2024-03-17T08:03:17;101934.38;;;7.71;100.00
73981;BME280;62348;51.412;5.436;2024-03-17T08:05:43;101925.28;;;7.72;100.00
73981;BME280;62348;51.412;5.436;2024-03-17T08:08:08;101932.31;;;7.73;100.00
73981;BME280;62348;51.412;5.436;2024-03-17T08:10:37;101925.28;;;7.72;100.00
73981;BME280;62348;51.412;5.436;2024-03-17T08:13:04;101925.03;;;7.74;100.00
73981;BME280;62348;51.412;5.436;2024-03-17T08:15:30;101930.22;;;7.75;100.00
73981;BME280;62348;51.412;5.436;2024-03-17T08:17:55;101940.56;;;7.78;100.00
73981;BME280;62348;51.412;5.436;2024-03-17T08:20:21;101932.03;;;7.81;100.00
73981;BME280;62348;51.412;5.436;2024-03-17T08:22:46;101941.38;;;7.86;100.00
73981;BME280;62348;51.412;5.436;2024-03-17T08:25:12;101941.13;;;7.87;100.00
73981;BME280;62348;51.412;5.436;2024-03-17T08:27:37;101945.50;;;7.88;100.00
73981;BME280;62348;51.412;5.436;2024-03-17T08:30:02;101933.06;;;7.87;100.00
73981;BME280;62348;51.412;5.436;2024-03-17T08:32:28;101935.97;;;7.86;100.00
73981;BME280;62348;51.412;5.436;2024-03-17T08:34:54;101932.69;;;7.84;100.00
73981;BME280;62348;51.412;5.436;2024-03-17T08:37:20;101937.00;;;7.85;100.00
73981;BME280;62348;51.412;5.436;2024-03-17T08:39:47;101947.78;;;7.85;100.00
73981;BME280;62348;51.412;5.436;2024-03-17T08:42:12;101935.13;;;7.85;100.00
73981;BME280;62348;51.412;5.436;2024-03-17T08:44:37;101934.94;;;7.87;100.00
73981;BME280;62348;51.412;5.436;2024-03-17T08:47:03;101940.09;;;7.88;100.00
73981;BME280;62348;51.412;5.436;2024-03-17T08:49:29;101938.84;;;7.91;100.00
73981;BME280;62348;51.412;5.436;2024-03-17T08:51:54;101937.59;;;7.93;100.00
73981;BME280;62348;51.412;5.436;2024-03-17T08:54:19;101938.81;;;7.97;100.00
73981;BME280;62348;51.412;5.436;2024-03-17T08:56:45;101938.16;;;8.02;100.00
73981;BME280;62348;51.412;5.436;2024-03-17T08:59:10;101936.66;;;8.06;100.00
73981;BME280;62348;51.412;5.436;2024-03-17T09:01:37;101935.22;;;8.10;100.00
73981;BME280;62348;51.412;5.436;2024-03-17T09:04:03;101928.94;;;8.16;100.00
73981;BME280;62348;51.412;5.436;2024-03-17T09:06:28;101923.75;;;8.21;100.00
73981;BME280;62348;51.412;5.436;2024-03-17T09:08:55;101931.97;;;8.27;100.00
73981;BME280;62348;51.412;5.436;2024-03-17T09:11:20;101923.47;;;8.30;100.00
73981;BME280;62348;51.412;5.436;2024-03-17T09:13:50;101923.63;;;8.35;100.00
73981;BME280;62348;51.412;5.436;2024-03-17T09:16:16;101927.53;;;8.39;100.00
73981;BME280;62348;51.412;5.436;2024-03-17T09:18:43;101924.19;;;8.44;100.00
73981;BME280;62348;51.412;5.436;2024-03-17T09:21:09;101929.75;;;8.49;100.00
73981;BME280;62348;51.412;5.436;2024-03-17T09:23:36;101926.41;;;8.53;100.00
73981;BME280;62348;51.412;5.436;2024-03-17T09:26:05;101927.97;;;8.61;100.00
73981;BME280;62348;51.412;5.436;2024-03-17T09:28:31;101923.38;;;8.68;100.00
73981;BME280;62348;51.412;5.436;2024-03-17T09:30:57;101929.53;;;8.75;100.00
73981;BME280;62348;51.412;5.436;2024-03-17T09:33:24;101924.09;;;8.82;100.00
73981;BME280;62348;51.412;5.436;2024-03-17T09:36:06;101922.50;;;8.93;100.00
73981;BME280;62348;51.412;5.436;2024-03-17T09:38:34;101923.56;;;9.10;100.00
73981;BME280;62348;51.412;5.436;2024-03-17T09:41:00;101917.56;;;9.27;100.00
73981;BME280;62348;51.412;5.436;2024-03-17T09:43:30;101912.97;;;9.46;100.00
73981;BME280;62348;51.412;5.436;2024-03-17T09:45:56;101918.59;;;9.63;100.00
73981;BME280;62348;51.412;5.436;2024-03-17T09:48:26;101921.53;;;9.73;100.00
73981;BME280;62348;51.412;5.436;2024-03-17T09:50:58;101920.88;;;9.77;100.00
73981;BME280;62348;51.412;5.436;2024-03-17T09:53:26;101923.72;;;9.83;100.00
73981;BME280;62348;51.412;5.436;2024-03-17T09:55:56;101916.31;;;9.90;100.00
73981;BME280;62348;51.412;5.436;2024-03-17T09:58:22;101915.44;;;9.96;100.00
73981;BME280;62348;51.412;5.436;2024-03-17T10:00:47;101915.53;;;10.01;100.00
73981;BME280;62348;51.412;5.436;2024-03-17T10:03:42;101915.91;;;10.05;100.00
73981;BME280;62348;51.412;5.436;2024-03-17T10:06:09;101915.91;;;10.05;100.00
73981;BME280;62348;51.412;5.436;2024-03-17T10:08:48;101921.69;;;10.08;100.00
73981;BME280;62348;51.412;5.436;2024-03-17T10:11:16;101911.69;;;10.09;100.00
73981;BME280;62348;51.412;5.436;2024-03-17T10:13:46;101911.22;;;10.12;100.00
73981;BME280;62348;51.412;5.436;2024-03-17T10:16:22;101909.72;;;10.16;100.00
73981;BME280;62348;51.412;5.436;2024-03-17T10:18:48;101907.16;;;10.21;100.00
73981;BME280;62348;51.412;5.436;2024-03-17T10:21:27;101896.91;;;10.23;100.00
73981;BME280;62348;51.412;5.436;2024-03-17T10:24:25;101900.38;;;10.30;100.00
73981;BME280;62348;51.412;5.436;2024-03-17T10:26:56;101894.47;;;10.33;100.00
73981;BME280;62348;51.412;5.436;2024-03-17T10:31:57;101898.97;;;10.40;100.00
73981;BME280;62348;51.412;5.436;2024-03-17T10:34:25;101889.34;;;10.44;100.00
73981;BME280;62348;51.412;5.436;2024-03-17T10:37:10;101894.84;;;10.49;100.00
73981;BME280;62348;51.412;5.436;2024-03-17T10:39:37;101900.16;;;10.55;100.00
73981;BME280;62348;51.412;5.436;2024-03-17T10:42:07;101890.88;;;10.63;100.00
73981;BME280;62348;51.412;5.436;2024-03-17T10:44:38;101891.00;;;10.68;100.00
73981;BME280;62348;51.412;5.436;2024-03-17T10:47:04;101891.22;;;10.79;100.00
73981;BME280;62348;51.412;5.436;2024-03-17T10:49:37;101890.03;;;10.86;100.00
73981;BME280;62348;51.412;5.436;2024-03-17T10:52:16;101880.03;;;10.99;100.00
73981;BME280;62348;51.412;5.436;2024-03-17T10:54:51;101885.63;;;11.09;100.00
73981;BME280;62348;51.412;5.436;2024-03-17T10:59:59;101886.28;;;11.28;100.00
73981;BME280;62348;51.412;5.436;2024-03-17T11:02:26;101884.03;;;11.37;100.00
73981;BME280;62348;51.412;5.436;2024-03-17T11:05:25;101882.84;;;11.44;100.00
73981;BME280;62348;51.412;5.436;2024-03-17T11:07:51;101881.28;;;11.48;100.00
73981;BME280;62348;51.412;5.436;2024-03-17T11:10:26;101883.53;;;11.51;100.00
73981;BME280;62348;51.412;5.436;2024-03-17T11:12:56;101891.16;;;11.55;100.00
73981;BME280;62348;51.412;5.436;2024-03-17T11:17:51;101877.38;;;11.56;100.00
73981;BME280;62348;51.412;5.436;2024-03-17T11:20:26;101881.22;;;11.60;100.00
73981;BME280;62348;51.412;5.436;2024-03-17T11:22:58;101878.28;;;11.62;100.00
73981;BME280;62348;51.412;5.436;2024-03-17T11:28:06;101877.06;;;11.69;100.00
73981;BME280;62348;51.412;5.436;2024-03-17T11:51:51;101858.69;;;11.71;100.00
73981;BME280;62348;51.412;5.436;2024-03-17T11:54:22;101859.75;;;11.70;100.00
73981;BME280;62348;51.412;5.436;2024-03-17T11:56:50;101850.78;;;11.70;100.00
73981;BME280;62348;51.412;5.436;2024-03-17T11:59:17;101851.03;;;11.68;100.00
73981;BME280;62348;51.412;5.436;2024-03-17T12:01:45;101848.31;;;11.68;100.00
73981;BME280;62348;51.412;5.436;2024-03-17T12:04:11;101838.09;;;11.70;100.00
73981;BME280;62348;51.412;5.436;2024-03-17T12:06:37;101835.13;;;11.72;100.00
73981;BME280;62348;51.412;5.436;2024-03-17T12:09:25;101841.09;;;11.74;100.00
73981;BME280;62348;51.412;5.436;2024-03-17T12:11:59;101822.16;;;11.74;100.00
73981;BME280;62348;51.412;5.436;2024-03-17T12:14:25;101825.47;;;11.76;100.00
73981;BME280;62348;51.412;5.436;2024-03-17T12:16:59;101819.53;;;11.79;100.00
73981;BME280;62348;51.412;5.436;2024-03-17T12:19:25;101822.81;;;11.81;100.00
73981;BME280;62348;51.412;5.436;2024-03-17T12:21:53;101819.88;;;11.83;100.00
73981;BME280;62348;51.412;5.436;2024-03-17T12:24:21;101820.44;;;11.85;100.00
73981;BME280;62348;51.412;5.436;2024-03-17T12:26:49;101820.19;;;11.86;100.00
73981;BME280;62348;51.412;5.436;2024-03-17T12:31:51;101808.03;;;11.89;100.00
73981;BME280;62348;51.412;5.436;2024-03-17T12:34:18;101797.81;;;11.91;100.00
73981;BME280;62348;51.412;5.436;2024-03-17T12:36:44;101808.97;;;11.95;100.00
73981;BME280;62348;51.412;5.436;2024-03-17T12:39:24;101801.41;;;11.97;100.00
73981;BME280;62348;51.412;5.436;2024-03-17T12:44:30;101793.84;;;11.99;100.00
73981;BME280;62348;51.412;5.436;2024-03-17T12:46:57;101800.44;;;12.03;100.00
73981;BME280;62348;51.412;5.436;2024-03-17T12:49:23;101794.75;;;12.04;100.00
73981;BME280;62348;51.412;5.436;2024-03-17T12:51:52;101797.22;;;12.06;100.00
73981;BME280;62348;51.412;5.436;2024-03-17T12:54:23;101793.78;;;12.10;100.00
73981;BME280;62348;51.412;5.436;2024-03-17T12:56:50;101788.94;;;12.13;100.00
73981;BME280;62348;51.412;5.436;2024-03-17T12:59:41;101787.84;;;12.14;100.00
73981;BME280;62348;51.412;5.436;2024-03-17T13:02:25;101795.75;;;12.15;100.00
73981;BME280;62348;51.412;5.436;2024-03-17T13:07:41;101786.56;;;12.16;100.00
73981;BME280;62348;51.412;5.436;2024-03-17T13:10:06;101779.00;;;12.18;100.00
73981;BME280;62348;51.412;5.436;2024-03-17T13:12:33;101771.75;;;12.24;100.00
73981;BME280;62348;51.412;5.436;2024-03-17T13:14:59;101770.50;;;12.32;100.00
73981;BME280;62348;51.412;5.436;2024-03-17T13:17:25;101761.94;;;12.40;100.00
73981;BME280;62348;51.412;5.436;2024-03-17T13:19:50;101762.56;;;12.47;100.00
73981;BME280;62348;51.412;5.436;2024-03-17T13:22:15;101761.56;;;12.53;100.00
73981;BME280;62348;51.412;5.436;2024-03-17T13:24:41;101756.47;;;12.57;100.00
73981;BME280;62348;51.412;5.436;2024-03-17T13:27:06;101750.53;;;12.60;99.55
73981;BME280;62348;51.412;5.436;2024-03-17T13:29:34;101748.41;;;12.62;97.50
73981;BME280;62348;51.412;5.436;2024-03-17T13:32:02;101751.66;;;12.64;97.59